Epic Capri — 9HA2845 — position and weather

sailwx.info

Track history (hours):
 
Tides and Currents Weather Stations Pressure Air Temp Water Temp Dewpoint Dewpoint Depression Visibility Wind Speed Wind Dir Waves Ship Positions

Epic Capri

Last reported at 2016-Oct-01 15:33 UTC. Time now 2016-Oct-01 17:14 UTC.
Position N 37°57' W 008°53'.

Length 99 m; draft 5.2 m.

Type: Ship (hazmat cat B). MMSI: 256325000.

Date/timePositionNaut miles runAvg speedWind from/ knotsBaromVisibWave heightAir tempDewpointWater temp
2016-Oct-01 15:33N 37°57' W 008°53'0 0.0
2016-Oct-01 14:33N 37°57' W 008°53'0 0.0
2016-Oct-01 13:33N 37°57' W 008°53'0 0.0
2016-Oct-01 04:33N 37°57' W 008°53'1 1.2
2016-Oct-01 03:33N 37°56' W 008°53'29 9.6
2016-Oct-01 00:33N 38°08' W 009°26'2211.0
2016-Sep-30 22:32N 38°16' W 009°52'5210.2
2016-Sep-30 17:29N 39°06' W 010°08'  
2016-Sep-28 08:33N 39°13' W 009°56'43 8.6
2016-Sep-28 03:33N 38°30' W 009°54'9 8.7
2016-Sep-28 02:33N 38°21' W 009°51'9 8.4
2016-Sep-28 01:32N 38°16' W 009°42'18 9.1
2016-Sep-27 23:33N 38°08' W 009°21'25 6.2
2016-Sep-27 19:33N 37°57' W 008°53'0 0.0
2016-Sep-27 14:33N 37°57' W 008°53'0 0.0
2016-Sep-27 13:33N 37°57' W 008°53'0 0.0
2016-Sep-27 10:30N 37°57' W 008°53'2 0.2
2016-Sep-27 00:32N 37°55' W 008°52'0 0.0
2016-Sep-26 20:32N 37°55' W 008°52'0 0.0
2016-Sep-26 19:32N 37°55' W 008°52'0 0.0
2016-Sep-26 15:32N 37°55' W 008°52'0 0.0
2016-Sep-26 13:32N 37°55' W 008°52'0 0.0
2016-Sep-26 11:32N 37°55' W 008°52'0 0.0
2016-Sep-26 08:32N 37°55' W 008°52'70 8.8
2016-Sep-26 00:32N 37°53' W 010°21'  
2016-Sep-23 09:11N 37°53' W 024°01'3011.2
2016-Sep-23 06:33N 37°46' W 024°37'2311.3
2016-Sep-23 04:34N 37°40' W 025°05'1211.6
2016-Sep-23 03:33N 37°40' W 025°20'1111.2
2016-Sep-23 02:34N 37°42' W 025°34'6 5.6
2016-Sep-23 01:33N 37°44' W 025°40'0 0.0
2016-Sep-23 00:33N 37°44' W 025°40'0 0.0
2016-Sep-22 23:33N 37°44' W 025°40'0 0.0
2016-Sep-22 20:33N 37°44' W 025°40'0 0.0
2016-Sep-22 12:33N 37°44' W 025°40'5 0.7
2016-Sep-22 04:33N 37°44' W 025°47'1010.0
2016-Sep-22 03:33N 37°51' W 025°56'3110.2
2016-Sep-22 00:33N 38°13' W 026°23'10 9.7
2016-Sep-21 23:34N 38°19' W 026°32'1010.4
2016-Sep-21 22:33N 38°27' W 026°41'  
Track history (hours):
 
Tides and Currents Weather Stations Pressure Air Temp Water Temp Dewpoint Dewpoint Depression Visibility Wind Speed Wind Dir Waves Ship Positions

Epic Capri

Last reported at 2016-Oct-01 15:33 UTC. Time now 2016-Oct-01 17:14 UTC.
Position N 37°57' W 008°53'.

Length 99 m; draft 5.2 m.

Type: Ship (hazmat cat B). MMSI: 256325000.

Date/timePositionNaut miles runAvg speedWind from/ knotsBaromVisibWave heightAir tempDewpointWater temp
2016-Oct-01 15:33N 37°57' W 008°53'0 0.0
2016-Oct-01 14:33N 37°57' W 008°53'0 0.0
2016-Oct-01 13:33N 37°57' W 008°53'0 0.0
2016-Oct-01 04:33N 37°57' W 008°53'1 1.2
2016-Oct-01 03:33N 37°56' W 008°53'29 9.6
2016-Oct-01 00:33N 38°08' W 009°26'2211.0
2016-Sep-30 22:32N 38°16' W 009°52'5210.2
2016-Sep-30 17:29N 39°06' W 010°08'  
2016-Sep-28 08:33N 39°13' W 009°56'43 8.6
2016-Sep-28 03:33N 38°30' W 009°54'9 8.7
2016-Sep-28 02:33N 38°21' W 009°51'9 8.4
2016-Sep-28 01:32N 38°16' W 009°42'18 9.1
2016-Sep-27 23:33N 38°08' W 009°21'25 6.2
2016-Sep-27 19:33N 37°57' W 008°53'0 0.0
2016-Sep-27 14:33N 37°57' W 008°53'0 0.0
2016-Sep-27 13:33N 37°57' W 008°53'0 0.0
2016-Sep-27 10:30N 37°57' W 008°53'2 0.2
2016-Sep-27 00:32N 37°55' W 008°52'0 0.0
2016-Sep-26 20:32N 37°55' W 008°52'0 0.0
2016-Sep-26 19:32N 37°55' W 008°52'0 0.0
2016-Sep-26 15:32N 37°55' W 008°52'0 0.0
2016-Sep-26 13:32N 37°55' W 008°52'0 0.0
2016-Sep-26 11:32N 37°55' W 008°52'0 0.0
2016-Sep-26 08:32N 37°55' W 008°52'70 8.8
2016-Sep-26 00:32N 37°53' W 010°21'  
2016-Sep-23 09:11N 37°53' W 024°01'3011.2
2016-Sep-23 06:33N 37°46' W 024°37'2311.3
2016-Sep-23 04:34N 37°40' W 025°05'1211.6
2016-Sep-23 03:33N 37°40' W 025°20'1111.2
2016-Sep-23 02:34N 37°42' W 025°34'6 5.6
2016-Sep-23 01:33N 37°44' W 025°40'0 0.0
2016-Sep-23 00:33N 37°44' W 025°40'0 0.0
2016-Sep-22 23:33N 37°44' W 025°40'0 0.0
2016-Sep-22 20:33N 37°44' W 025°40'0 0.0
2016-Sep-22 12:33N 37°44' W 025°40'5 0.7
2016-Sep-22 04:33N 37°44' W 025°47'1010.0
2016-Sep-22 03:33N 37°51' W 025°56'3110.2
2016-Sep-22 00:33N 38°13' W 026°23'10 9.7
2016-Sep-21 23:34N 38°19' W 026°32'1010.4
2016-Sep-21 22:33N 38°27' W 026°41'  

Dump ship's entire track history